sensor_id;sensor_type;location;lat;lon;timestamp;P1;durP1;ratioP1;P2;durP2;ratioP2
35364;SDS011;21464;48.112;11.530;2022-08-11T00:02:01;4.45;;;2.55;;
35364;SDS011;21464;48.112;11.530;2022-08-11T00:04:33;3.70;;;2.88;;
35364;SDS011;21464;48.112;11.530;2022-08-11T00:07:02;3.45;;;2.85;;
35364;SDS011;21464;48.112;11.530;2022-08-11T00:09:34;3.58;;;2.83;;
35364;SDS011;21464;48.112;11.530;2022-08-11T00:12:01;2.92;;;2.72;;
35364;SDS011;21464;48.112;11.530;2022-08-11T00:14:28;3.30;;;3.00;;
35364;SDS011;21464;48.112;11.530;2022-08-11T00:17:12;3.10;;;2.90;;
35364;SDS011;21464;48.112;11.530;2022-08-11T00:19:40;3.08;;;2.88;;
35364;SDS011;21464;48.112;11.530;2022-08-11T00:22:09;3.13;;;2.78;;
35364;SDS011;21464;48.112;11.530;2022-08-11T00:24:37;4.85;;;2.90;;
35364;SDS011;21464;48.112;11.530;2022-08-11T00:27:04;4.63;;;3.10;;
35364;SDS011;21464;48.112;11.530;2022-08-11T00:29:31;3.15;;;2.90;;
35364;SDS011;21464;48.112;11.530;2022-08-11T00:31:59;4.80;;;3.15;;
35364;SDS011;21464;48.112;11.530;2022-08-11T00:34:27;3.00;;;2.80;;
35364;SDS011;21464;48.112;11.530;2022-08-11T00:37:03;3.10;;;2.80;;
35364;SDS011;21464;48.112;11.530;2022-08-11T00:39:33;3.13;;;2.85;;
35364;SDS011;21464;48.112;11.530;2022-08-11T00:47:55;2.95;;;2.65;;
35364;SDS011;21464;48.112;11.530;2022-08-11T00:53:32;5.22;;;2.95;;
35364;SDS011;21464;48.112;11.530;2022-08-11T01:20:41;3.35;;;3.05;;
35364;SDS011;21464;48.112;11.530;2022-08-11T01:23:27;3.80;;;3.30;;
35364;SDS011;21464;48.112;11.530;2022-08-11T01:46:30;3.42;;;3.13;;
35364;SDS011;21464;48.112;11.530;2022-08-11T01:52:24;3.85;;;3.30;;
35364;SDS011;21464;48.112;11.530;2022-08-11T02:03:53;3.97;;;3.35;;
35364;SDS011;21464;48.112;11.530;2022-08-11T02:06:32;4.50;;;3.47;;
35364;SDS011;21464;48.112;11.530;2022-08-11T02:11:54;4.95;;;3.30;;
35364;SDS011;21464;48.112;11.530;2022-08-11T02:14:41;5.07;;;3.22;;
35364;SDS011;21464;48.112;11.530;2022-08-11T02:17:20;5.28;;;3.28;;
35364;SDS011;21464;48.112;11.530;2022-08-11T02:19:59;3.50;;;3.20;;
35364;SDS011;21464;48.112;11.530;2022-08-11T02:26:04;4.63;;;3.38;;
35364;SDS011;21464;48.112;11.530;2022-08-11T02:28:55;4.30;;;3.17;;
35364;SDS011;21464;48.112;11.530;2022-08-11T02:46:23;7.05;;;3.40;;
35364;SDS011;21464;48.112;11.530;2022-08-11T02:49:04;3.80;;;3.45;;
35364;SDS011;21464;48.112;11.530;2022-08-11T03:10:22;6.78;;;3.58;;
35364;SDS011;21464;48.112;11.530;2022-08-11T03:13:05;5.30;;;3.72;;
35364;SDS011;21464;48.112;11.530;2022-08-11T03:16:02;3.90;;;3.50;;
35364;SDS011;21464;48.112;11.530;2022-08-11T03:19:00;4.65;;;3.63;;
35364;SDS011;21464;48.112;11.530;2022-08-11T03:24:48;5.00;;;3.63;;
35364;SDS011;21464;48.112;11.530;2022-08-11T03:30:18;5.95;;;4.40;;
35364;SDS011;21464;48.112;11.530;2022-08-11T03:33:05;5.10;;;4.45;;
35364;SDS011;21464;48.112;11.530;2022-08-11T03:36:05;5.28;;;4.63;;
35364;SDS011;21464;48.112;11.530;2022-08-11T03:38:37;4.72;;;4.22;;
35364;SDS011;21464;48.112;11.530;2022-08-11T03:41:25;4.40;;;4.00;;
35364;SDS011;21464;48.112;11.530;2022-08-11T03:46:54;6.40;;;4.90;;
35364;SDS011;21464;48.112;11.530;2022-08-11T04:05:33;5.18;;;4.55;;
35364;SDS011;21464;48.112;11.530;2022-08-11T04:22:21;11.07;;;9.00;;
35364;SDS011;21464;48.112;11.530;2022-08-11T04:51:43;10.40;;;6.93;;
35364;SDS011;21464;48.112;11.530;2022-08-11T04:58:07;9.05;;;5.93;;
35364;SDS011;21464;48.112;11.530;2022-08-11T05:04:15;5.32;;;4.82;;
35364;SDS011;21464;48.112;11.530;2022-08-11T05:12:51;5.45;;;4.70;;
35364;SDS011;21464;48.112;11.530;2022-08-11T05:15:24;5.45;;;4.95;;
35364;SDS011;21464;48.112;11.530;2022-08-11T05:18:22;8.63;;;6.28;;
35364;SDS011;21464;48.112;11.530;2022-08-11T05:21:08;7.05;;;5.55;;
35364;SDS011;21464;48.112;11.530;2022-08-11T05:24:01;8.57;;;7.38;;
35364;SDS011;21464;48.112;11.530;2022-08-11T05:27:12;5.82;;;5.15;;
35364;SDS011;21464;48.112;11.530;2022-08-11T05:30:02;12.32;;;8.93;;
35364;SDS011;21464;48.112;11.530;2022-08-11T05:33:00;9.93;;;7.63;;
35364;SDS011;21464;48.112;11.530;2022-08-11T05:36:15;6.13;;;5.05;;
35364;SDS011;21464;48.112;11.530;2022-08-11T05:38:53;5.60;;;4.20;;
35364;SDS011;21464;48.112;11.530;2022-08-11T05:41:40;7.07;;;5.05;;
35364;SDS011;21464;48.112;11.530;2022-08-11T05:44:25;8.50;;;4.82;;
35364;SDS011;21464;48.112;11.530;2022-08-11T05:47:11;4.95;;;4.55;;
35364;SDS011;21464;48.112;11.530;2022-08-11T05:50:07;5.07;;;4.57;;
35364;SDS011;21464;48.112;11.530;2022-08-11T05:52:55;4.65;;;4.25;;
35364;SDS011;21464;48.112;11.530;2022-08-11T05:55:41;5.07;;;4.43;;
35364;SDS011;21464;48.112;11.530;2022-08-11T05:58:34;6.65;;;4.28;;
35364;SDS011;21464;48.112;11.530;2022-08-11T06:01:03;7.47;;;4.68;;
35364;SDS011;21464;48.112;11.530;2022-08-11T06:03:30;5.38;;;4.50;;
35364;SDS011;21464;48.112;11.530;2022-08-11T06:05:58;4.88;;;4.40;;
35364;SDS011;21464;48.112;11.530;2022-08-11T06:08:31;7.78;;;4.30;;
35364;SDS011;21464;48.112;11.530;2022-08-11T06:11:02;4.38;;;3.97;;
35364;SDS011;21464;48.112;11.530;2022-08-11T06:13:29;4.55;;;4.15;;
35364;SDS011;21464;48.112;11.530;2022-08-11T06:15:58;4.38;;;3.97;;
35364;SDS011;21464;48.112;11.530;2022-08-11T06:18:24;5.07;;;4.50;;
35364;SDS011;21464;48.112;11.530;2022-08-11T06:20:52;4.80;;;4.40;;
35364;SDS011;21464;48.112;11.530;2022-08-11T06:23:20;4.47;;;4.07;;
35364;SDS011;21464;48.112;11.530;2022-08-11T06:25:51;6.57;;;4.72;;
35364;SDS011;21464;48.112;11.530;2022-08-11T06:28:18;5.13;;;3.95;;
35364;SDS011;21464;48.112;11.530;2022-08-11T06:30:47;4.43;;;4.03;;
35364;SDS011;21464;48.112;11.530;2022-08-11T06:33:15;5.03;;;4.60;;
35364;SDS011;21464;48.112;11.530;2022-08-11T06:35:50;5.05;;;4.40;;
35364;SDS011;21464;48.112;11.530;2022-08-11T06:41:20;4.80;;;4.40;;
35364;SDS011;21464;48.112;11.530;2022-08-11T06:46:39;7.97;;;4.95;;
35364;SDS011;21464;48.112;11.530;2022-08-11T06:49:08;9.30;;;5.10;;
35364;SDS011;21464;48.112;11.530;2022-08-11T06:51:57;5.68;;;4.70;;
35364;SDS011;21464;48.112;11.530;2022-08-11T06:54:51;5.20;;;4.50;;
35364;SDS011;21464;48.112;11.530;2022-08-11T06:57:21;5.57;;;4.70;;
35364;SDS011;21464;48.112;11.530;2022-08-11T07:00:06;5.10;;;4.63;;
35364;SDS011;21464;48.112;11.530;2022-08-11T07:02:54;5.55;;;4.25;;
35364;SDS011;21464;48.112;11.530;2022-08-11T07:05:24;4.78;;;4.38;;
35364;SDS011;21464;48.112;11.530;2022-08-11T07:14:09;5.57;;;4.68;;
35364;SDS011;21464;48.112;11.530;2022-08-11T07:16:55;4.80;;;4.30;;
35364;SDS011;21464;48.112;11.530;2022-08-11T07:19:24;4.72;;;4.32;;
35364;SDS011;21464;48.112;11.530;2022-08-11T07:22:10;5.32;;;4.57;;
35364;SDS011;21464;48.112;11.530;2022-08-11T07:27:41;6.95;;;4.90;;
35364;SDS011;21464;48.112;11.530;2022-08-11T07:30:29;10.73;;;7.38;;
35364;SDS011;21464;48.112;11.530;2022-08-11T07:32:58;5.90;;;4.95;;
35364;SDS011;21464;48.112;11.530;2022-08-11T07:37:56;5.75;;;5.15;;
35364;SDS011;21464;48.112;11.530;2022-08-11T07:40:23;21.45;;;14.77;;
35364;SDS011;21464;48.112;11.530;2022-08-11T07:42:50;11.77;;;7.60;;
35364;SDS011;21464;48.112;11.530;2022-08-11T07:45:17;8.18;;;5.65;;
35364;SDS011;21464;48.112;11.530;2022-08-11T07:48:02;5.50;;;5.00;;
35364;SDS011;21464;48.112;11.530;2022-08-11T07:50:48;4.97;;;4.43;;
35364;SDS011;21464;48.112;11.530;2022-08-11T07:53:32;4.53;;;4.13;;
35364;SDS011;21464;48.112;11.530;2022-08-11T07:56:00;5.75;;;4.55;;
35364;SDS011;21464;48.112;11.530;2022-08-11T07:58:27;7.43;;;5.78;;
35364;SDS011;21464;48.112;11.530;2022-08-11T08:01:22;4.60;;;4.20;;
35364;SDS011;21464;48.112;11.530;2022-08-11T08:04:09;4.30;;;4.00;;
35364;SDS011;21464;48.112;11.530;2022-08-11T08:06:56;6.55;;;4.43;;
35364;SDS011;21464;48.112;11.530;2022-08-11T08:09:41;5.35;;;4.40;;
35364;SDS011;21464;48.112;11.530;2022-08-11T08:12:27;4.70;;;4.05;;
35364;SDS011;21464;48.112;11.530;2022-08-11T08:15:13;4.50;;;4.10;;
35364;SDS011;21464;48.112;11.530;2022-08-11T08:17:59;4.43;;;4.00;;
35364;SDS011;21464;48.112;11.530;2022-08-11T08:20:28;4.53;;;4.10;;
35364;SDS011;21464;48.112;11.530;2022-08-11T08:22:58;4.65;;;4.25;;
35364;SDS011;21464;48.112;11.530;2022-08-11T08:25:26;4.35;;;3.95;;
35364;SDS011;21464;48.112;11.530;2022-08-11T08:27:57;5.68;;;4.28;;
35364;SDS011;21464;48.112;11.530;2022-08-11T08:30:25;5.32;;;4.22;;
35364;SDS011;21464;48.112;11.530;2022-08-11T08:33:16;4.43;;;3.97;;
35364;SDS011;21464;48.112;11.530;2022-08-11T08:35:48;4.55;;;3.90;;
35364;SDS011;21464;48.112;11.530;2022-08-11T08:38:17;3.88;;;3.58;;
35364;SDS011;21464;48.112;11.530;2022-08-11T08:40:44;5.22;;;4.28;;
35364;SDS011;21464;48.112;11.530;2022-08-11T08:43:14;7.07;;;4.30;;
35364;SDS011;21464;48.112;11.530;2022-08-11T08:45:42;4.75;;;3.92;;
35364;SDS011;21464;48.112;11.530;2022-08-11T08:48:13;6.32;;;5.40;;
35364;SDS011;21464;48.112;11.530;2022-08-11T08:50:47;20.50;;;14.68;;
35364;SDS011;21464;48.112;11.530;2022-08-11T08:53:34;10.35;;;8.43;;
35364;SDS011;21464;48.112;11.530;2022-08-11T08:56:03;9.32;;;8.30;;
35364;SDS011;21464;48.112;11.530;2022-08-11T08:58:32;8.57;;;6.35;;
35364;SDS011;21464;48.112;11.530;2022-08-11T09:00:59;5.65;;;5.03;;
35364;SDS011;21464;48.112;11.530;2022-08-11T09:03:26;5.32;;;4.78;;
35364;SDS011;21464;48.112;11.530;2022-08-11T09:05:53;5.97;;;5.38;;
35364;SDS011;21464;48.112;11.530;2022-08-11T09:08:20;5.65;;;4.60;;
35364;SDS011;21464;48.112;11.530;2022-08-11T09:10:47;5.32;;;4.82;;
35364;SDS011;21464;48.112;11.530;2022-08-11T09:13:34;4.20;;;3.80;;
35364;SDS011;21464;48.112;11.530;2022-08-11T09:16:02;4.35;;;3.95;;
35364;SDS011;21464;48.112;11.530;2022-08-11T09:18:30;4.97;;;4.00;;
35364;SDS011;21464;48.112;11.530;2022-08-11T09:20:57;6.57;;;4.38;;
35364;SDS011;21464;48.112;11.530;2022-08-11T09:23:23;5.70;;;3.90;;
35364;SDS011;21464;48.112;11.530;2022-08-11T09:26:09;4.60;;;4.20;;
35364;SDS011;21464;48.112;11.530;2022-08-11T09:28:54;4.78;;;3.60;;
35364;SDS011;21464;48.112;11.530;2022-08-11T09:31:20;4.90;;;3.60;;
35364;SDS011;21464;48.112;11.530;2022-08-11T09:33:47;6.30;;;4.10;;
35364;SDS011;21464;48.112;11.530;2022-08-11T09:36:17;6.32;;;3.92;;
35364;SDS011;21464;48.112;11.530;2022-08-11T09:39:02;7.18;;;5.35;;
35364;SDS011;21464;48.112;11.530;2022-08-11T09:41:48;8.82;;;6.20;;
35364;SDS011;21464;48.112;11.530;2022-08-11T09:44:15;6.78;;;6.07;;
35364;SDS011;21464;48.112;11.530;2022-08-11T09:47:00;6.25;;;5.55;;
35364;SDS011;21464;48.112;11.530;2022-08-11T09:49:30;4.53;;;3.92;;
35364;SDS011;21464;48.112;11.530;2022-08-11T09:51:56;4.30;;;3.90;;
35364;SDS011;21464;48.112;11.530;2022-08-11T09:54:23;4.32;;;3.70;;
35364;SDS011;21464;48.112;11.530;2022-08-11T09:56:52;4.25;;;3.80;;
35364;SDS011;21464;48.112;11.530;2022-08-11T09:59:37;4.97;;;3.97;;
35364;SDS011;21464;48.112;11.530;2022-08-11T10:02:05;8.70;;;3.75;;
35364;SDS011;21464;48.112;11.530;2022-08-11T10:04:42;4.50;;;3.35;;
35364;SDS011;21464;48.112;11.530;2022-08-11T10:07:14;3.83;;;3.53;;
35364;SDS011;21464;48.112;11.530;2022-08-11T10:12:08;3.95;;;3.22;;
35364;SDS011;21464;48.112;11.530;2022-08-11T10:14:41;4.13;;;3.33;;
35364;SDS011;21464;48.112;11.530;2022-08-11T10:17:29;4.05;;;3.65;;
35364;SDS011;21464;48.112;11.530;2022-08-11T10:19:58;4.70;;;3.15;;
35364;SDS011;21464;48.112;11.530;2022-08-11T10:22:27;4.15;;;3.80;;
35364;SDS011;21464;48.112;11.530;2022-08-11T10:25:13;3.67;;;3.22;;
35364;SDS011;21464;48.112;11.530;2022-08-11T10:27:58;3.40;;;3.17;;
35364;SDS011;21464;48.112;11.530;2022-08-11T10:30:25;4.10;;;3.55;;
35364;SDS011;21464;48.112;11.530;2022-08-11T10:33:11;4.18;;;3.85;;
35364;SDS011;21464;48.112;11.530;2022-08-11T10:35:57;3.40;;;3.10;;
35364;SDS011;21464;48.112;11.530;2022-08-11T10:38:24;5.93;;;4.35;;
35364;SDS011;21464;48.112;11.530;2022-08-11T10:40:51;4.28;;;3.50;;
35364;SDS011;21464;48.112;11.530;2022-08-11T10:43:38;5.85;;;4.22;;
35364;SDS011;21464;48.112;11.530;2022-08-11T10:46:06;4.45;;;4.05;;
35364;SDS011;21464;48.112;11.530;2022-08-11T10:48:54;6.45;;;4.43;;
35364;SDS011;21464;48.112;11.530;2022-08-11T10:51:24;6.13;;;5.25;;
35364;SDS011;21464;48.112;11.530;2022-08-11T10:54:10;3.92;;;3.63;;
35364;SDS011;21464;48.112;11.530;2022-08-11T10:56:56;4.40;;;4.00;;
35364;SDS011;21464;48.112;11.530;2022-08-11T10:59:41;4.60;;;4.00;;
35364;SDS011;21464;48.112;11.530;2022-08-11T11:02:09;6.45;;;3.78;;
35364;SDS011;21464;48.112;11.530;2022-08-11T11:07:38;6.70;;;4.03;;
35364;SDS011;21464;48.112;11.530;2022-08-11T11:10:12;4.35;;;3.85;;
35364;SDS011;21464;48.112;11.530;2022-08-11T11:12:41;4.00;;;3.60;;
35364;SDS011;21464;48.112;11.530;2022-08-11T11:15:29;3.88;;;3.58;;
35364;SDS011;21464;48.112;11.530;2022-08-11T11:18:16;3.95;;;3.40;;
35364;SDS011;21464;48.112;11.530;2022-08-11T11:23:32;5.65;;;4.07;;
35364;SDS011;21464;48.112;11.530;2022-08-11T11:26:07;4.00;;;3.67;;
35364;SDS011;21464;48.112;11.530;2022-08-11T11:31:50;4.47;;;3.17;;
35364;SDS011;21464;48.112;11.530;2022-08-11T11:37:06;3.83;;;3.30;;
35364;SDS011;21464;48.112;11.530;2022-08-11T11:39:33;6.22;;;3.88;;
35364;SDS011;21464;48.112;11.530;2022-08-11T11:42:01;5.93;;;5.22;;
35364;SDS011;21464;48.112;11.530;2022-08-11T11:44:29;8.50;;;5.80;;
35364;SDS011;21464;48.112;11.530;2022-08-11T11:46:57;7.10;;;4.90;;
35364;SDS011;21464;48.112;11.530;2022-08-11T11:49:24;7.05;;;6.35;;
35364;SDS011;21464;48.112;11.530;2022-08-11T11:51:53;3.60;;;3.30;;
35364;SDS011;21464;48.112;11.530;2022-08-11T11:54:21;5.20;;;3.88;;
35364;SDS011;21464;48.112;11.530;2022-08-11T11:56:50;3.08;;;2.88;;
35364;SDS011;21464;48.112;11.530;2022-08-11T11:59:21;4.63;;;3.42;;
35364;SDS011;21464;48.112;11.530;2022-08-11T12:02:08;3.70;;;3.40;;
35364;SDS011;21464;48.112;11.530;2022-08-11T12:04:41;4.75;;;3.30;;
35364;SDS011;21464;48.112;11.530;2022-08-11T12:07:09;3.42;;;3.13;;
35364;SDS011;21464;48.112;11.530;2022-08-11T12:09:54;3.40;;;3.10;;
35364;SDS011;21464;48.112;11.530;2022-08-11T12:12:22;4.70;;;2.90;;
35364;SDS011;21464;48.112;11.530;2022-08-11T12:15:07;4.97;;;3.10;;
35364;SDS011;21464;48.112;11.530;2022-08-11T12:17:34;3.20;;;2.90;;
35364;SDS011;21464;48.112;11.530;2022-08-11T12:20:01;3.35;;;2.75;;
35364;SDS011;21464;48.112;11.530;2022-08-11T12:22:28;3.30;;;2.88;;
35364;SDS011;21464;48.112;11.530;2022-08-11T12:25:14;5.70;;;2.90;;
35364;SDS011;21464;48.112;11.530;2022-08-11T12:28:00;3.03;;;2.40;;
35364;SDS011;21464;48.112;11.530;2022-08-11T12:30:27;5.40;;;3.03;;
35364;SDS011;21464;48.112;11.530;2022-08-11T12:32:53;3.08;;;2.88;;
35364;SDS011;21464;48.112;11.530;2022-08-11T12:35:20;3.00;;;2.60;;
35364;SDS011;21464;48.112;11.530;2022-08-11T12:37:48;2.70;;;2.50;;
35364;SDS011;21464;48.112;11.530;2022-08-11T12:40:18;3.15;;;2.85;;
35364;SDS011;21464;48.112;11.530;2022-08-11T12:43:09;2.85;;;2.65;;
35364;SDS011;21464;48.112;11.530;2022-08-11T12:45:56;3.25;;;2.67;;
35364;SDS011;21464;48.112;11.530;2022-08-11T12:48:26;2.72;;;2.53;;
35364;SDS011;21464;48.112;11.530;2022-08-11T12:51:15;3.67;;;2.90;;
35364;SDS011;21464;48.112;11.530;2022-08-11T12:54:36;3.30;;;2.72;;
35364;SDS011;21464;48.112;11.530;2022-08-11T12:57:12;3.22;;;2.92;;
35364;SDS011;21464;48.112;11.530;2022-08-11T12:59:59;3.63;;;2.60;;
35364;SDS011;21464;48.112;11.530;2022-08-11T13:02:48;2.90;;;2.70;;
35364;SDS011;21464;48.112;11.530;2022-08-11T13:05:33;4.07;;;2.55;;
35364;SDS011;21464;48.112;11.530;2022-08-11T13:08:00;2.53;;;2.30;;
35364;SDS011;21464;48.112;11.530;2022-08-11T13:10:28;2.38;;;2.28;;
35364;SDS011;21464;48.112;11.530;2022-08-11T13:13:13;4.13;;;2.72;;
35364;SDS011;21464;48.112;11.530;2022-08-11T13:15:40;2.97;;;2.60;;
35364;SDS011;21464;48.112;11.530;2022-08-11T13:18:06;3.97;;;2.63;;
35364;SDS011;21464;48.112;11.530;2022-08-11T13:20:33;2.55;;;2.42;;
35364;SDS011;21464;48.112;11.530;2022-08-11T13:23:00;3.42;;;2.05;;
35364;SDS011;21464;48.112;11.530;2022-08-11T13:25:27;2.03;;;1.90;;
35364;SDS011;21464;48.112;11.530;2022-08-11T13:27:56;4.95;;;2.45;;
35364;SDS011;21464;48.112;11.530;2022-08-11T13:30:24;2.50;;;2.22;;
35364;SDS011;21464;48.112;11.530;2022-08-11T13:33:11;2.70;;;2.38;;
35364;SDS011;21464;48.112;11.530;2022-08-11T13:35:38;2.40;;;2.20;;
35364;SDS011;21464;48.112;11.530;2022-08-11T13:38:06;2.70;;;2.30;;
35364;SDS011;21464;48.112;11.530;2022-08-11T13:40:32;3.72;;;2.05;;
35364;SDS011;21464;48.112;11.530;2022-08-11T13:43:00;2.20;;;2.03;;
35364;SDS011;21464;48.112;11.530;2022-08-11T13:45:26;2.85;;;1.98;;
35364;SDS011;21464;48.112;11.530;2022-08-11T13:47:54;2.50;;;2.30;;
35364;SDS011;21464;48.112;11.530;2022-08-11T13:50:21;2.90;;;1.92;;
35364;SDS011;21464;48.112;11.530;2022-08-11T13:53:08;2.22;;;2.00;;
35364;SDS011;21464;48.112;11.530;2022-08-11T13:55:40;2.63;;;2.22;;
35364;SDS011;21464;48.112;11.530;2022-08-11T13:58:08;2.13;;;2.03;;
35364;SDS011;21464;48.112;11.530;2022-08-11T14:00:36;4.47;;;2.45;;
35364;SDS011;21464;48.112;11.530;2022-08-11T14:03:04;2.72;;;2.08;;
35364;SDS011;21464;48.112;11.530;2022-08-11T14:05:47;2.72;;;2.30;;
35364;SDS011;21464;48.112;11.530;2022-08-11T14:08:17;2.08;;;1.98;;
35364;SDS011;21464;48.112;11.530;2022-08-11T14:10:46;1.92;;;1.83;;
35364;SDS011;21464;48.112;11.530;2022-08-11T14:13:35;2.63;;;2.08;;
35364;SDS011;21464;48.112;11.530;2022-08-11T14:16:05;3.55;;;2.17;;
35364;SDS011;21464;48.112;11.530;2022-08-11T14:18:34;2.35;;;2.20;;
35364;SDS011;21464;48.112;11.530;2022-08-11T14:21:05;2.10;;;2.00;;
35364;SDS011;21464;48.112;11.530;2022-08-11T14:23:50;2.40;;;2.20;;
35364;SDS011;21464;48.112;11.530;2022-08-11T14:26:22;2.47;;;2.28;;
35364;SDS011;21464;48.112;11.530;2022-08-11T14:28:49;3.40;;;2.10;;
35364;SDS011;21464;48.112;11.530;2022-08-11T14:31:23;2.28;;;2.05;;
35364;SDS011;21464;48.112;11.530;2022-08-11T14:33:52;2.33;;;2.22;;
35364;SDS011;21464;48.112;11.530;2022-08-11T14:36:21;2.30;;;2.10;;
35364;SDS011;21464;48.112;11.530;2022-08-11T14:38:49;3.10;;;2.10;;
35364;SDS011;21464;48.112;11.530;2022-08-11T14:41:15;2.42;;;2.25;;
35364;SDS011;21464;48.112;11.530;2022-08-11T14:44:01;2.90;;;2.67;;
35364;SDS011;21464;48.112;11.530;2022-08-11T14:46:46;2.30;;;2.10;;
35364;SDS011;21464;48.112;11.530;2022-08-11T14:49:33;3.00;;;2.78;;
35364;SDS011;21464;48.112;11.530;2022-08-11T14:52:11;2.30;;;2.15;;
35364;SDS011;21464;48.112;11.530;2022-08-11T14:54:44;6.03;;;3.88;;
35364;SDS011;21464;48.112;11.530;2022-08-11T14:57:32;4.35;;;4.03;;
35364;SDS011;21464;48.112;11.530;2022-08-11T15:00:03;8.00;;;4.43;;
35364;SDS011;21464;48.112;11.530;2022-08-11T15:02:32;4.82;;;3.00;;
35364;SDS011;21464;48.112;11.530;2022-08-11T15:05:18;3.83;;;2.80;;
35364;SDS011;21464;48.112;11.530;2022-08-11T15:07:45;2.67;;;2.35;;
35364;SDS011;21464;48.112;11.530;2022-08-11T15:10:11;3.28;;;3.00;;
35364;SDS011;21464;48.112;11.530;2022-08-11T15:12:38;3.00;;;2.78;;
35364;SDS011;21464;48.112;11.530;2022-08-11T15:15:06;3.58;;;2.88;;
35364;SDS011;21464;48.112;11.530;2022-08-11T15:17:53;2.92;;;2.60;;
35364;SDS011;21464;48.112;11.530;2022-08-11T15:20:21;3.03;;;2.72;;
35364;SDS011;21464;48.112;11.530;2022-08-11T15:23:07;3.38;;;3.08;;
35364;SDS011;21464;48.112;11.530;2022-08-11T15:25:54;3.63;;;3.00;;
35364;SDS011;21464;48.112;11.530;2022-08-11T15:28:22;3.55;;;3.00;;
35364;SDS011;21464;48.112;11.530;2022-08-11T15:31:08;4.65;;;4.20;;
35364;SDS011;21464;48.112;11.530;2022-08-11T15:33:54;4.47;;;3.65;;
35364;SDS011;21464;48.112;11.530;2022-08-11T15:36:43;5.50;;;3.88;;
35364;SDS011;21464;48.112;11.530;2022-08-11T15:39:35;3.10;;;2.88;;
35364;SDS011;21464;48.112;11.530;2022-08-11T15:42:23;5.38;;;4.00;;
35364;SDS011;21464;48.112;11.530;2022-08-11T15:45:08;3.22;;;2.92;;
35364;SDS011;21464;48.112;11.530;2022-08-11T15:47:55;3.10;;;2.80;;
35364;SDS011;21464;48.112;11.530;2022-08-11T15:50:23;5.40;;;4.90;;
35364;SDS011;21464;48.112;11.530;2022-08-11T15:52:55;7.38;;;4.78;;
35364;SDS011;21464;48.112;11.530;2022-08-11T15:55:24;3.67;;;3.38;;
35364;SDS011;21464;48.112;11.530;2022-08-11T15:57:52;6.13;;;3.55;;
35364;SDS011;21464;48.112;11.530;2022-08-11T16:00:37;6.38;;;3.33;;
35364;SDS011;21464;48.112;11.530;2022-08-11T16:03:23;5.30;;;3.97;;
35364;SDS011;21464;48.112;11.530;2022-08-11T16:06:10;3.10;;;2.80;;
35364;SDS011;21464;48.112;11.530;2022-08-11T16:08:39;3.47;;;2.78;;
35364;SDS011;21464;48.112;11.530;2022-08-11T16:11:07;2.75;;;2.42;;
35364;SDS011;21464;48.112;11.530;2022-08-11T16:13:34;3.45;;;2.78;;
35364;SDS011;21464;48.112;11.530;2022-08-11T16:16:07;3.55;;;2.70;;
35364;SDS011;21464;48.112;11.530;2022-08-11T16:18:44;2.88;;;2.63;;
35364;SDS011;21464;48.112;11.530;2022-08-11T16:21:22;3.40;;;2.92;;
35364;SDS011;21464;48.112;11.530;2022-08-11T16:23:51;3.00;;;2.72;;
35364;SDS011;21464;48.112;11.530;2022-08-11T16:26:19;3.60;;;2.40;;
35364;SDS011;21464;48.112;11.530;2022-08-11T16:28:50;2.58;;;2.38;;
35364;SDS011;21464;48.112;11.530;2022-08-11T16:31:18;2.53;;;2.33;;
35364;SDS011;21464;48.112;11.530;2022-08-11T16:33:46;2.67;;;2.47;;
35364;SDS011;21464;48.112;11.530;2022-08-11T16:36:13;3.20;;;2.67;;
35364;SDS011;21464;48.112;11.530;2022-08-11T16:38:58;4.47;;;3.40;;
35364;SDS011;21464;48.112;11.530;2022-08-11T16:41:28;6.68;;;5.45;;
35364;SDS011;21464;48.112;11.530;2022-08-11T16:44:14;6.88;;;6.05;;
35364;SDS011;21464;48.112;11.530;2022-08-11T16:47:00;2.63;;;2.40;;
35364;SDS011;21464;48.112;11.530;2022-08-11T16:49:30;3.30;;;3.00;;
35364;SDS011;21464;48.112;11.530;2022-08-11T16:51:58;3.80;;;3.28;;
35364;SDS011;21464;48.112;11.530;2022-08-11T16:54:29;3.08;;;2.78;;
35364;SDS011;21464;48.112;11.530;2022-08-11T16:56:57;2.70;;;2.50;;
35364;SDS011;21464;48.112;11.530;2022-08-11T16:59:45;3.58;;;2.75;;
35364;SDS011;21464;48.112;11.530;2022-08-11T17:02:15;3.47;;;3.13;;
35364;SDS011;21464;48.112;11.530;2022-08-11T17:05:14;2.75;;;2.55;;
35364;SDS011;21464;48.112;11.530;2022-08-11T17:08:01;8.02;;;2.92;;
35364;SDS011;21464;48.112;11.530;2022-08-11T17:10:59;4.95;;;2.92;;
35364;SDS011;21464;48.112;11.530;2022-08-11T17:13:46;4.68;;;3.10;;
35364;SDS011;21464;48.112;11.530;2022-08-11T17:16:19;11.48;;;7.47;;
35364;SDS011;21464;48.112;11.530;2022-08-11T17:18:48;6.90;;;4.70;;
35364;SDS011;21464;48.112;11.530;2022-08-11T17:21:33;5.85;;;4.90;;
35364;SDS011;21464;48.112;11.530;2022-08-11T17:24:24;4.78;;;3.30;;
35364;SDS011;21464;48.112;11.530;2022-08-11T17:26:52;3.20;;;2.88;;
35364;SDS011;21464;48.112;11.530;2022-08-11T17:29:24;3.28;;;2.70;;
35364;SDS011;21464;48.112;11.530;2022-08-11T17:31:54;3.03;;;2.83;;
35364;SDS011;21464;48.112;11.530;2022-08-11T17:34:41;3.25;;;2.42;;
35364;SDS011;21464;48.112;11.530;2022-08-11T17:37:30;3.67;;;3.17;;
35364;SDS011;21464;48.112;11.530;2022-08-11T17:39:58;4.70;;;2.72;;
35364;SDS011;21464;48.112;11.530;2022-08-11T17:42:26;5.22;;;2.40;;
35364;SDS011;21464;48.112;11.530;2022-08-11T17:45:13;2.88;;;2.58;;
35364;SDS011;21464;48.112;11.530;2022-08-11T17:47:59;3.30;;;2.85;;
35364;SDS011;21464;48.112;11.530;2022-08-11T17:50:44;2.72;;;2.40;;
35364;SDS011;21464;48.112;11.530;2022-08-11T17:53:12;2.47;;;2.20;;
35364;SDS011;21464;48.112;11.530;2022-08-11T17:55:58;2.58;;;2.38;;
35364;SDS011;21464;48.112;11.530;2022-08-11T17:58:44;2.38;;;1.90;;
35364;SDS011;21464;48.112;11.530;2022-08-11T18:01:30;2.13;;;2.03;;
35364;SDS011;21464;48.112;11.530;2022-08-11T18:04:04;3.13;;;2.13;;
35364;SDS011;21464;48.112;11.530;2022-08-11T18:06:32;6.90;;;5.55;;
35364;SDS011;21464;48.112;11.530;2022-08-11T18:08:59;8.07;;;4.75;;
35364;SDS011;21464;48.112;11.530;2022-08-11T18:11:44;4.35;;;3.90;;
35364;SDS011;21464;48.112;11.530;2022-08-11T18:14:30;6.35;;;4.32;;
35364;SDS011;21464;48.112;11.530;2022-08-11T18:17:16;7.45;;;6.43;;
35364;SDS011;21464;48.112;11.530;2022-08-11T18:20:01;3.10;;;2.80;;
35364;SDS011;21464;48.112;11.530;2022-08-11T18:22:46;2.97;;;2.67;;
35364;SDS011;21464;48.112;11.530;2022-08-11T18:25:33;3.28;;;2.40;;
35364;SDS011;21464;48.112;11.530;2022-08-11T18:28:28;2.95;;;2.67;;
35364;SDS011;21464;48.112;11.530;2022-08-11T18:31:19;2.90;;;2.70;;
35364;SDS011;21464;48.112;11.530;2022-08-11T18:34:05;3.58;;;2.65;;
35364;SDS011;21464;48.112;11.530;2022-08-11T18:37:02;2.53;;;2.28;;
35364;SDS011;21464;48.112;11.530;2022-08-11T18:40:03;2.45;;;2.10;;
35364;SDS011;21464;48.112;11.530;2022-08-11T18:42:52;3.08;;;2.30;;
35364;SDS011;21464;48.112;11.530;2022-08-11T18:45:39;3.55;;;1.73;;
35364;SDS011;21464;48.112;11.530;2022-08-11T18:48:25;3.22;;;2.20;;
35364;SDS011;21464;48.112;11.530;2022-08-11T18:51:11;4.63;;;2.10;;
35364;SDS011;21464;48.112;11.530;2022-08-11T18:53:59;5.40;;;4.13;;
35364;SDS011;21464;48.112;11.530;2022-08-11T18:56:46;5.35;;;4.00;;
35364;SDS011;21464;48.112;11.530;2022-08-11T18:59:34;10.57;;;7.15;;
35364;SDS011;21464;48.112;11.530;2022-08-11T19:02:22;5.50;;;4.80;;
35364;SDS011;21464;48.112;11.530;2022-08-11T19:05:07;6.00;;;4.22;;
35364;SDS011;21464;48.112;11.530;2022-08-11T19:07:54;6.95;;;4.20;;